Gunnar Thorson — OUDU — position and weather

sailwx.info

Track history (hours):
 
Tides and Currents Weather Stations Pressure Air Temp Water Temp Dewpoint Dewpoint Depression Visibility Wind Speed Wind Dir Waves Ship Positions

Oceanographic research ship Gunnar Thorson (Denmark)

Detailed information on ship capabilities available from University of Delaware's Ocean Information Center.

Last reported at 2015-Mar-28 05:31 UTC. Time now 2015-Mar-31 16:52 UTC.
Position N 57°26' E 010°32'.

Length 48 m; draft 4.2 m.

Type: Military. MMSI: 219263000.

Date/timePositionNaut miles runAvg speedWind from/ knotsBaromVisibWave heightAir tempDewpointWater temp
2015-Mar-28 05:31N 57°26' E 010°32'  
2015-Mar-25 06:11N 57°26' E 010°32'0 0.0
2015-Mar-24 22:20N 57°26' E 010°32'0 0.0
2015-Mar-24 17:08N 57°26' E 010°32'0 0.0
2015-Mar-24 09:25N 57°26' E 010°32'0 0.0
2015-Mar-24 08:31N 57°26' E 010°32'0 0.0
2015-Mar-24 07:22N 57°26' E 010°32'0 0.0
2015-Mar-24 06:19N 57°26' E 010°32'0 0.0
2015-Mar-24 03:22N 57°26' E 010°32'0 0.0
2015-Mar-24 02:31N 57°26' E 010°32'0 0.0
2015-Mar-24 01:28N 57°26' E 010°32'0 0.0
2015-Mar-23 12:04N 57°26' E 010°32'0 0.0
2015-Mar-23 11:19N 57°26' E 010°32'  
2015-Mar-20 06:04N 57°22' E 010°37'0 0.0
2015-Mar-20 05:16N 57°22' E 010°37'0 0.0
2015-Mar-20 04:28N 57°22' E 010°37'0 0.0
2015-Mar-20 03:31N 57°22' E 010°37'0 0.0
2015-Mar-20 02:25N 57°22' E 010°37'0 0.0
2015-Mar-19 23:04N 57°22' E 010°37'0 0.0
2015-Mar-19 22:28N 57°22' E 010°37'1111.6
2015-Mar-19 21:33N 57°12' E 010°45'1211.8
2015-Mar-19 20:32N 57°01' E 010°51'1111.5
2015-Mar-19 19:32N 56°49' E 010°54'7 6.9
2015-Mar-19 18:33N 56°43' E 010°55'2 2.3
2015-Mar-19 17:33N 56°43' E 010°59'11 9.4
2015-Mar-19 16:21N 56°32' E 010°60'1011.4
2015-Mar-19 15:31N 56°22' E 010°60'1511.3
2015-Mar-19 14:10N 56°09' E 010°45'610.7
2015-Mar-19 13:34N 56°05' E 010°36'1111.0
2015-Mar-19 12:34N 56°09' E 010°18'2 2.3
2015-Mar-19 11:31N 56°09' E 010°13'3 3.0
2015-Mar-19 10:34N 56°08' E 010°18'3 2.8
2015-Mar-19 09:34N 56°05' E 010°20'2 1.8
2015-Mar-19 08:30N 56°07' E 010°19'4 4.1
2015-Mar-19 07:34N 56°09' E 010°13'0 0.1
2015-Mar-19 06:33N 56°09' E 010°13'0 0.0
2015-Mar-19 05:33N 56°09' E 010°13'0 0.0
2015-Mar-18 18:29N 56°09' E 010°13'0 0.0
2015-Mar-18 16:05N 56°09' E 010°13'0 0.0
2015-Mar-18 15:32N 56°09' E 010°13'0 0.0
2015-Mar-18 14:32N 56°09' E 010°13'0 0.0
2015-Mar-18 13:32N 56°09' E 010°13'0 0.0
2015-Mar-18 12:32N 56°09' E 010°13'0 0.0
2015-Mar-18 11:32N 56°09' E 010°13'0 0.0
2015-Mar-18 10:32N 56°09' E 010°13'0 0.0
2015-Mar-18 09:29N 56°09' E 010°13'0 0.0
2015-Mar-18 08:32N 56°09' E 010°13'0 0.0
2015-Mar-18 07:32N 56°09' E 010°13'  
Track history (hours):
 
Tides and Currents Weather Stations Pressure Air Temp Water Temp Dewpoint Dewpoint Depression Visibility Wind Speed Wind Dir Waves Ship Positions

Oceanographic research ship Gunnar Thorson (Denmark)

Detailed information on ship capabilities available from University of Delaware's Ocean Information Center.

Last reported at 2015-Mar-28 05:31 UTC. Time now 2015-Mar-31 16:52 UTC.
Position N 57°26' E 010°32'.

Length 48 m; draft 4.2 m.

Type: Military. MMSI: 219263000.

Date/timePositionNaut miles runAvg speedWind from/ knotsBaromVisibWave heightAir tempDewpointWater temp
2015-Mar-28 05:31N 57°26' E 010°32'  
2015-Mar-25 06:11N 57°26' E 010°32'0 0.0
2015-Mar-24 22:20N 57°26' E 010°32'0 0.0
2015-Mar-24 17:08N 57°26' E 010°32'0 0.0
2015-Mar-24 09:25N 57°26' E 010°32'0 0.0
2015-Mar-24 08:31N 57°26' E 010°32'0 0.0
2015-Mar-24 07:22N 57°26' E 010°32'0 0.0
2015-Mar-24 06:19N 57°26' E 010°32'0 0.0
2015-Mar-24 03:22N 57°26' E 010°32'0 0.0
2015-Mar-24 02:31N 57°26' E 010°32'0 0.0
2015-Mar-24 01:28N 57°26' E 010°32'0 0.0
2015-Mar-23 12:04N 57°26' E 010°32'0 0.0
2015-Mar-23 11:19N 57°26' E 010°32'  
2015-Mar-20 06:04N 57°22' E 010°37'0 0.0
2015-Mar-20 05:16N 57°22' E 010°37'0 0.0
2015-Mar-20 04:28N 57°22' E 010°37'0 0.0
2015-Mar-20 03:31N 57°22' E 010°37'0 0.0
2015-Mar-20 02:25N 57°22' E 010°37'0 0.0
2015-Mar-19 23:04N 57°22' E 010°37'0 0.0
2015-Mar-19 22:28N 57°22' E 010°37'1111.6
2015-Mar-19 21:33N 57°12' E 010°45'1211.8
2015-Mar-19 20:32N 57°01' E 010°51'1111.5
2015-Mar-19 19:32N 56°49' E 010°54'7 6.9
2015-Mar-19 18:33N 56°43' E 010°55'2 2.3
2015-Mar-19 17:33N 56°43' E 010°59'11 9.4
2015-Mar-19 16:21N 56°32' E 010°60'1011.4
2015-Mar-19 15:31N 56°22' E 010°60'1511.3
2015-Mar-19 14:10N 56°09' E 010°45'610.7
2015-Mar-19 13:34N 56°05' E 010°36'1111.0
2015-Mar-19 12:34N 56°09' E 010°18'2 2.3
2015-Mar-19 11:31N 56°09' E 010°13'3 3.0
2015-Mar-19 10:34N 56°08' E 010°18'3 2.8
2015-Mar-19 09:34N 56°05' E 010°20'2 1.8
2015-Mar-19 08:30N 56°07' E 010°19'4 4.1
2015-Mar-19 07:34N 56°09' E 010°13'0 0.1
2015-Mar-19 06:33N 56°09' E 010°13'0 0.0
2015-Mar-19 05:33N 56°09' E 010°13'0 0.0
2015-Mar-18 18:29N 56°09' E 010°13'0 0.0
2015-Mar-18 16:05N 56°09' E 010°13'0 0.0
2015-Mar-18 15:32N 56°09' E 010°13'0 0.0
2015-Mar-18 14:32N 56°09' E 010°13'0 0.0
2015-Mar-18 13:32N 56°09' E 010°13'0 0.0
2015-Mar-18 12:32N 56°09' E 010°13'0 0.0
2015-Mar-18 11:32N 56°09' E 010°13'0 0.0
2015-Mar-18 10:32N 56°09' E 010°13'0 0.0
2015-Mar-18 09:29N 56°09' E 010°13'0 0.0
2015-Mar-18 08:32N 56°09' E 010°13'0 0.0
2015-Mar-18 07:32N 56°09' E 010°13'  

Dump ship's entire track history